createdAt,value
2022-09-28T00:00:53.347Z,75.10
2022-09-28T00:04:00.015Z,75.00
2022-09-28T00:07:02.351Z,75.10
2022-09-28T00:10:04.820Z,75.00
2022-09-28T00:13:08.272Z,74.90
2022-09-28T00:16:16.128Z,74.90
2022-09-28T00:19:18.441Z,75.00
2022-09-28T00:22:20.592Z,74.90
2022-09-28T00:25:25.076Z,74.90
2022-09-28T00:28:27.191Z,74.90
2022-09-28T00:31:32.896Z,74.90
2022-09-28T00:34:42.518Z,74.90
2022-09-28T00:37:44.943Z,75.00
2022-09-28T00:40:47.245Z,74.90
2022-09-28T00:43:50.069Z,74.90
2022-09-28T00:47:38.029Z,74.90
2022-09-28T00:50:40.938Z,74.90
2022-09-28T00:53:44.448Z,74.80
2022-09-28T00:56:48.772Z,74.80
2022-09-28T00:59:52.225Z,74.70
2022-09-28T01:02:54.576Z,74.70
2022-09-28T01:05:59.383Z,74.70
2022-09-28T01:09:08.817Z,74.60
2022-09-28T01:12:10.972Z,74.60
2022-09-28T01:15:14.145Z,74.50
2022-09-28T01:18:29.108Z,74.40
2022-09-28T01:21:50.576Z,74.40
2022-09-28T01:25:21.532Z,74.40
2022-09-28T01:28:31.666Z,74.40
2022-09-28T01:31:35.761Z,74.30
2022-09-28T01:34:55.178Z,74.50
2022-09-28T01:38:21.494Z,74.20
2022-09-28T01:41:26.142Z,74.30
2022-09-28T01:44:32.928Z,74.20
2022-09-28T01:47:39.437Z,74.20
2022-09-28T01:50:44.445Z,74.20
2022-09-28T01:53:53.139Z,74.20
2022-09-28T01:57:07.927Z,74.20
2022-09-28T02:00:13.181Z,74.10
2022-09-28T02:04:07.284Z,74.10
2022-09-28T02:07:18.331Z,74.10
2022-09-28T02:10:25.659Z,74.00
2022-09-28T02:13:37.465Z,74.00
2022-09-28T02:16:42.309Z,74.00
2022-09-28T02:19:45.060Z,73.80
2022-09-28T02:22:53.560Z,73.90
2022-09-28T02:26:05.497Z,73.80
2022-09-28T02:29:08.470Z,73.80
2022-09-28T02:32:11.339Z,73.80
2022-09-28T02:35:16.996Z,73.80
2022-09-28T02:38:19.894Z,73.80
2022-09-28T02:41:32.719Z,73.70
2022-09-28T02:45:09.007Z,73.80
2022-09-28T02:48:44.673Z,73.80
2022-09-28T02:52:04.150Z,73.70
2022-09-28T02:55:18.616Z,73.60
2022-09-28T02:58:44.973Z,73.70
2022-09-28T03:01:59.266Z,73.80
2022-09-28T03:05:13.615Z,73.70
2022-09-28T03:08:54.854Z,73.60
2022-09-28T03:12:06.623Z,73.60
2022-09-28T03:15:25.865Z,73.40
2022-09-28T03:18:29.754Z,73.50
2022-09-28T03:21:32.192Z,73.40
2022-09-28T03:24:34.697Z,73.40
2022-09-28T03:27:38.092Z,73.40
2022-09-28T03:30:41.824Z,73.30
2022-09-28T03:33:44.357Z,73.40
2022-09-28T03:36:46.606Z,73.40
2022-09-28T03:39:48.799Z,73.40
2022-09-28T03:42:51.132Z,73.30
2022-09-28T03:45:59.719Z,73.30
2022-09-28T03:49:03.845Z,73.30
2022-09-28T03:52:06.196Z,73.20
2022-09-28T03:55:08.962Z,73.30
2022-09-28T03:58:11.115Z,73.20
2022-09-28T04:01:18.424Z,73.20
2022-09-28T04:04:22.250Z,73.20
2022-09-28T04:07:26.915Z,73.20
2022-09-28T04:10:32.495Z,73.10
2022-09-28T04:13:34.627Z,73.20
2022-09-28T04:16:37.405Z,73.20
2022-09-28T04:19:45.206Z,73.20
2022-09-28T04:23:16.564Z,73.20
2022-09-28T04:26:24.332Z,73.10
2022-09-28T04:29:26.670Z,73.10
2022-09-28T04:32:31.123Z,73.00
2022-09-28T04:35:33.203Z,73.10
2022-09-28T04:38:52.847Z,73.10
2022-09-28T04:41:56.645Z,73.10
2022-09-28T04:45:00.994Z,73.10
2022-09-28T04:48:07.646Z,73.10
2022-09-28T04:51:31.783Z,73.00
2022-09-28T04:54:34.140Z,73.10
2022-09-28T04:57:36.451Z,73.10
2022-09-28T05:00:38.543Z,73.10
2022-09-28T05:04:00.894Z,73.00
2022-09-28T05:07:15.087Z,73.00
2022-09-28T05:10:20.070Z,73.00
2022-09-28T05:13:22.404Z,73.00
2022-09-28T05:16:26.360Z,73.00
2022-09-28T05:20:07.716Z,72.90
2022-09-28T05:23:11.667Z,73.00
2022-09-28T05:26:15.204Z,72.90
2022-09-28T05:29:18.207Z,72.90
2022-09-28T05:32:42.509Z,73.00
2022-09-28T05:36:01.046Z,72.80
2022-09-28T05:39:04.289Z,72.80
2022-09-28T05:42:12.605Z,72.80
2022-09-28T05:45:15.270Z,72.80
2022-09-28T05:48:19.307Z,72.80
2022-09-28T05:51:21.773Z,72.80
2022-09-28T05:54:25.281Z,72.70
2022-09-28T05:57:27.533Z,72.70
2022-09-28T06:00:31.242Z,72.70
2022-09-28T06:03:33.375Z,72.60
2022-09-28T06:06:36.863Z,72.50
2022-09-28T06:09:39.028Z,72.50
2022-09-28T06:12:54.171Z,72.60
2022-09-28T06:15:56.457Z,72.60
2022-09-28T06:18:58.788Z,72.50
2022-09-28T06:22:19.527Z,72.60
2022-09-28T06:25:30.104Z,72.50
2022-09-28T06:28:32.317Z,72.40
2022-09-28T06:31:34.682Z,72.40
2022-09-28T06:34:37.081Z,72.50
2022-09-28T06:37:39.928Z,72.40
2022-09-28T06:40:42.454Z,72.50
2022-09-28T06:43:46.206Z,72.40
2022-09-28T06:46:48.217Z,72.30
2022-09-28T06:50:27.848Z,72.20
2022-09-28T06:53:48.628Z,72.30
2022-09-28T06:57:06.937Z,72.20
2022-09-28T07:00:10.592Z,72.10
2022-09-28T07:03:16.276Z,72.20
2022-09-28T07:06:54.382Z,72.10
2022-09-28T07:10:15.272Z,72.00
2022-09-28T07:13:49.802Z,72.10
2022-09-28T07:17:12.615Z,71.90
2022-09-28T07:20:19.063Z,72.00
2022-09-28T07:23:27.570Z,72.00
2022-09-28T07:27:05.709Z,72.10
2022-09-28T07:30:18.631Z,71.90
2022-09-28T07:33:51.391Z,72.00
2022-09-28T07:37:05.802Z,72.00
2022-09-28T07:40:27.595Z,72.00
2022-09-28T07:43:29.888Z,72.10
2022-09-28T07:46:34.033Z,72.10
2022-09-28T07:49:41.046Z,72.10
2022-09-28T07:53:03.147Z,72.20
2022-09-28T07:56:23.746Z,72.00
2022-09-28T07:59:31.838Z,72.10
2022-09-28T08:02:52.430Z,72.10
2022-09-28T08:06:01.392Z,72.20
2022-09-28T08:09:03.661Z,72.10
2022-09-28T08:12:32.102Z,72.10
2022-09-28T08:15:51.209Z,72.00
2022-09-28T08:19:04.333Z,72.00
2022-09-28T08:22:07.136Z,71.90
2022-09-28T08:25:09.431Z,71.90
2022-09-28T08:28:12.018Z,71.70
2022-09-28T08:31:20.375Z,71.80
2022-09-28T08:34:44.588Z,71.70
2022-09-28T08:38:03.426Z,71.70
2022-09-28T08:41:45.577Z,71.70
2022-09-28T08:45:14.877Z,71.70
2022-09-28T08:48:51.819Z,71.80
2022-09-28T08:52:28.158Z,71.60
2022-09-28T08:55:50.561Z,71.50
2022-09-28T08:58:58.596Z,71.50
2022-09-28T09:02:04.253Z,71.50
2022-09-28T09:05:14.941Z,71.50
2022-09-28T09:09:02.021Z,71.50
2022-09-28T09:12:36.888Z,71.50
2022-09-28T09:15:55.209Z,71.60
2022-09-28T09:19:16.678Z,71.40
2022-09-28T09:23:17.470Z,72.10
2022-09-28T09:26:27.884Z,71.60
2022-09-28T09:29:50.382Z,71.50
2022-09-28T09:33:24.888Z,71.60
2022-09-28T09:37:08.015Z,71.30
2022-09-28T09:40:44.219Z,71.20
2022-09-28T09:44:30.530Z,71.30
2022-09-28T09:48:02.365Z,71.40
2022-09-28T09:51:20.894Z,71.30
2022-09-28T09:54:35.260Z,71.20
2022-09-28T09:57:54.089Z,71.10
2022-09-28T10:01:23.392Z,71.10
2022-09-28T10:04:46.969Z,71.20
2022-09-28T10:08:04.892Z,71.10
2022-09-28T10:11:22.473Z,71.10
2022-09-28T10:14:31.135Z,71.00
2022-09-28T10:17:43.343Z,70.90
2022-09-28T10:21:14.122Z,70.90
2022-09-28T10:24:51.186Z,71.10
2022-09-28T10:27:55.455Z,71.90
2022-09-28T10:30:59.197Z,71.10
2022-09-28T10:34:04.627Z,71.10
2022-09-28T10:37:12.880Z,71.20
2022-09-28T10:40:57.808Z,71.20
2022-09-28T10:44:21.826Z,71.30
2022-09-28T10:47:45.801Z,71.20
2022-09-28T10:51:19.939Z,71.20
2022-09-28T10:54:34.231Z,71.40
2022-09-28T10:57:39.993Z,71.30
2022-09-28T11:00:45.141Z,71.30
2022-09-28T11:04:02.473Z,71.30
2022-09-28T11:07:05.106Z,71.40
2022-09-28T11:10:25.188Z,71.40
2022-09-28T11:13:30.669Z,71.50
2022-09-28T11:16:40.597Z,71.50
2022-09-28T11:19:45.875Z,71.30
2022-09-28T11:22:51.705Z,71.40
2022-09-28T11:26:05.933Z,71.30
2022-09-28T11:29:21.642Z,71.30
2022-09-28T11:32:44.473Z,71.30
2022-09-28T11:36:13.517Z,71.40
2022-09-28T11:39:35.791Z,71.30
2022-09-28T11:42:45.834Z,71.40
2022-09-28T11:46:12.604Z,71.30
2022-09-28T11:49:45.719Z,71.30
2022-09-28T11:53:19.808Z,71.40
2022-09-28T11:56:39.871Z,71.40
2022-09-28T11:59:59.028Z,71.50
2022-09-28T12:03:34.741Z,71.40
2022-09-28T12:07:19.075Z,71.50
2022-09-28T12:10:45.630Z,71.50
2022-09-28T12:13:53.535Z,71.50
2022-09-28T12:17:19.248Z,71.50
2022-09-28T12:20:30.633Z,71.50
2022-09-28T12:23:36.301Z,72.20
2022-09-28T12:27:00.700Z,71.50
2022-09-28T12:30:25.337Z,71.60
2022-09-28T12:33:27.429Z,71.60
2022-09-28T12:36:50.022Z,71.60
2022-09-28T12:40:17.145Z,71.60
2022-09-28T12:43:21.993Z,71.60
2022-09-28T12:46:32.742Z,71.60
2022-09-28T12:50:37.088Z,71.70
2022-09-28T12:53:54.792Z,71.70
2022-09-28T12:57:08.683Z,71.70
2022-09-28T13:00:15.447Z,71.80
2022-09-28T13:03:20.672Z,71.70
2022-09-28T13:07:03.334Z,71.70
2022-09-28T13:10:32.749Z,71.80
2022-09-28T13:13:34.817Z,72.30
2022-09-28T13:16:46.484Z,71.70
2022-09-28T13:19:59.408Z,71.80
2022-09-28T13:23:15.785Z,71.80
2022-09-28T13:26:25.071Z,71.80
2022-09-28T13:29:27.986Z,71.80
2022-09-28T13:32:32.244Z,71.90
2022-09-28T13:35:35.106Z,71.90
2022-09-28T13:38:47.498Z,71.80
2022-09-28T13:41:50.971Z,71.90
2022-09-28T13:45:02.021Z,71.90
2022-09-28T13:48:16.161Z,71.90
2022-09-28T13:51:26.247Z,72.00
2022-09-28T13:54:31.412Z,72.00
2022-09-28T13:57:48.830Z,71.90
2022-09-28T14:00:58.925Z,71.80
2022-09-28T14:04:13.082Z,71.90
2022-09-28T14:07:34.535Z,72.00
2022-09-28T14:10:52.088Z,71.90
2022-09-28T14:14:13.839Z,72.00
2022-09-28T14:17:21.898Z,72.00
2022-09-28T14:20:26.163Z,72.10
2022-09-28T14:24:00.540Z,72.00
2022-09-28T14:27:27.066Z,72.10
2022-09-28T14:30:58.251Z,72.00
2022-09-28T14:34:03.669Z,72.10
2022-09-28T14:37:38.916Z,72.00
2022-09-28T14:41:15.411Z,72.00
2022-09-28T14:44:17.642Z,72.00
2022-09-28T14:47:35.271Z,71.90
2022-09-28T14:50:37.380Z,72.00
2022-09-28T14:53:39.832Z,72.00
2022-09-28T14:56:54.257Z,72.00
2022-09-28T14:59:59.856Z,72.70
2022-09-28T15:03:08.893Z,72.00
2022-09-28T15:06:17.131Z,72.10
2022-09-28T15:09:33.065Z,72.10
2022-09-28T15:12:35.396Z,72.10
2022-09-28T15:15:42.415Z,72.10
2022-09-28T15:19:02.866Z,72.10
2022-09-28T15:22:15.740Z,72.10
2022-09-28T15:25:25.029Z,72.10
2022-09-28T15:28:27.424Z,72.10
2022-09-28T15:31:34.835Z,72.10
2022-09-28T15:34:52.577Z,72.10
2022-09-28T15:37:55.467Z,72.10
2022-09-28T15:40:57.881Z,72.10
2022-09-28T15:44:24.203Z,72.10
2022-09-28T15:47:29.048Z,72.10
2022-09-28T15:50:33.576Z,72.00
2022-09-28T15:53:35.926Z,72.00
2022-09-28T15:56:59.860Z,72.10
2022-09-28T16:00:05.073Z,72.20
2022-09-28T16:03:16.917Z,72.00
2022-09-28T16:06:19.259Z,72.10
2022-09-28T16:09:40.905Z,72.80
2022-09-28T16:12:48.198Z,72.10
2022-09-28T16:16:00.430Z,72.10
2022-09-28T16:19:03.816Z,72.00
2022-09-28T16:22:17.004Z,72.00
2022-09-28T16:25:23.950Z,72.00
2022-09-28T16:28:38.796Z,72.00
2022-09-28T16:31:46.684Z,72.10
2022-09-28T16:35:06.240Z,72.10
2022-09-28T16:38:14.989Z,72.00
2022-09-28T16:41:24.346Z,72.00
2022-09-28T16:44:32.881Z,72.10
2022-09-28T16:47:35.192Z,72.00
2022-09-28T16:50:37.302Z,72.00
2022-09-28T16:53:58.183Z,72.10
2022-09-28T16:57:01.268Z,72.10
2022-09-28T17:00:04.289Z,72.10
2022-09-28T17:03:18.677Z,72.10
2022-09-28T17:06:25.398Z,72.00
2022-09-28T17:09:27.577Z,72.00
2022-09-28T17:12:29.740Z,71.80
2022-09-28T17:15:32.108Z,71.60
2022-09-28T17:18:37.508Z,71.60
2022-09-28T17:21:39.684Z,71.50
2022-09-28T17:24:41.947Z,71.50
2022-09-28T17:27:47.226Z,71.50
2022-09-28T17:30:50.388Z,71.60
2022-09-28T17:33:55.568Z,71.50
2022-09-28T17:36:59.691Z,71.50
2022-09-28T17:40:02.209Z,71.60
2022-09-28T17:43:05.780Z,71.50
2022-09-28T17:46:23.039Z,71.60
2022-09-28T17:49:25.330Z,71.60
2022-09-28T17:52:28.749Z,71.60
2022-09-28T17:55:33.145Z,71.60
2022-09-28T17:58:37.733Z,71.60
2022-09-28T18:01:41.629Z,71.60
2022-09-28T18:04:52.633Z,71.70
2022-09-28T18:07:55.531Z,71.80
2022-09-28T18:10:58.268Z,71.60
2022-09-28T18:14:01.181Z,71.70
2022-09-28T18:17:03.893Z,71.60
2022-09-28T18:20:09.525Z,71.70
2022-09-28T18:23:13.866Z,71.70
2022-09-28T18:26:19.713Z,71.80
2022-09-28T18:29:22.425Z,71.70
2022-09-28T18:32:26.994Z,71.70
2022-09-28T18:35:31.969Z,71.70
2022-09-28T18:38:39.227Z,71.80
2022-09-28T18:41:42.918Z,71.80
2022-09-28T18:44:47.299Z,71.80
2022-09-28T18:47:51.112Z,71.80
2022-09-28T18:50:53.172Z,71.70
2022-09-28T18:53:56.255Z,71.70
2022-09-28T18:57:03.091Z,71.80
2022-09-28T19:00:11.786Z,71.80
2022-09-28T19:03:17.212Z,71.70
2022-09-28T19:06:20.819Z,71.70
2022-09-28T19:09:27.972Z,71.80
2022-09-28T19:12:32.717Z,71.70
2022-09-28T19:15:37.688Z,71.70
2022-09-28T19:18:42.632Z,71.70
2022-09-28T19:21:46.317Z,71.70
2022-09-28T19:24:51.787Z,71.80
2022-09-28T19:27:54.479Z,71.80
2022-09-28T19:34:05.232Z,71.70
2022-09-28T19:37:08.110Z,71.70
2022-09-28T19:40:10.719Z,71.70
2022-09-28T19:43:16.402Z,71.80
2022-09-28T19:46:19.971Z,71.70
2022-09-28T19:49:25.632Z,71.70
2022-09-28T19:52:29.586Z,71.80
2022-09-28T19:55:36.309Z,71.70
2022-09-28T19:58:45.336Z,71.70
2022-09-28T20:01:49.670Z,71.70
2022-09-28T20:04:52.431Z,71.60
2022-09-28T20:07:55.253Z,71.70
2022-09-28T20:10:59.904Z,71.80
2022-09-28T20:14:06.660Z,71.70
2022-09-28T20:17:10.603Z,71.80
2022-09-28T20:20:15.253Z,71.80
2022-09-28T20:23:18.165Z,71.80
2022-09-28T20:26:21.646Z,71.80
2022-09-28T20:29:26.943Z,71.80
2022-09-28T20:32:33.102Z,71.80
2022-09-28T20:35:35.517Z,71.90
2022-09-28T20:38:42.011Z,71.80
2022-09-28T20:41:47.722Z,71.90
2022-09-28T20:44:50.657Z,71.80
2022-09-28T20:47:53.531Z,71.90
2022-09-28T20:51:00.025Z,71.80
2022-09-28T20:54:02.426Z,71.90
2022-09-28T20:57:19.198Z,71.90
2022-09-28T21:00:26.070Z,71.90
2022-09-28T21:03:30.343Z,72.00
2022-09-28T21:06:38.549Z,72.00
2022-09-28T21:09:40.682Z,72.00
2022-09-28T21:12:48.922Z,71.90
2022-09-28T21:15:52.601Z,72.00
2022-09-28T21:18:57.197Z,71.90
2022-09-28T21:22:01.686Z,72.00
2022-09-28T21:25:05.164Z,71.90
2022-09-28T21:28:09.838Z,72.00
2022-09-28T21:31:14.247Z,71.90
2022-09-28T21:34:19.547Z,71.90
2022-09-28T21:37:24.606Z,72.00
2022-09-28T21:40:27.887Z,72.00
2022-09-28T21:43:31.777Z,72.00
2022-09-28T21:46:37.923Z,72.00
2022-09-28T21:49:40.810Z,72.00
2022-09-28T21:52:43.840Z,72.00
2022-09-28T21:55:47.119Z,72.00
2022-09-28T21:58:50.572Z,72.20
2022-09-28T22:01:52.835Z,72.00
2022-09-28T22:04:55.182Z,72.00
2022-09-28T22:07:57.422Z,72.00
2022-09-28T22:11:09.356Z,72.00
2022-09-28T22:14:11.597Z,72.00
2022-09-28T22:17:13.939Z,72.00
2022-09-28T22:20:16.305Z,72.00
2022-09-28T22:23:18.397Z,72.00
2022-09-28T22:26:23.640Z,72.00
2022-09-28T22:29:25.882Z,72.00
2022-09-28T22:32:28.019Z,72.00
2022-09-28T22:35:30.140Z,71.90
2022-09-28T22:38:32.725Z,71.90
2022-09-28T22:41:34.990Z,71.90
2022-09-28T22:44:37.900Z,72.00
2022-09-28T22:47:39.973Z,71.90
2022-09-28T22:50:51.855Z,72.00
2022-09-28T22:53:54.046Z,72.10
2022-09-28T22:56:56.257Z,72.00
2022-09-28T22:59:58.372Z,72.10
2022-09-28T23:03:00.961Z,72.10
2022-09-28T23:06:03.932Z,72.10
2022-09-28T23:09:06.128Z,72.10
2022-09-28T23:12:08.233Z,72.10
2022-09-28T23:15:10.792Z,72.10
2022-09-28T23:18:12.895Z,72.10
2022-09-28T23:21:17.887Z,72.10
2022-09-28T23:24:20.081Z,72.10
2022-09-28T23:27:22.513Z,72.10
2022-09-28T23:30:24.731Z,72.10
2022-09-28T23:33:26.913Z,72.10
2022-09-28T23:36:29.847Z,72.10
2022-09-28T23:39:32.225Z,72.20
2022-09-28T23:42:35.553Z,72.10
2022-09-28T23:45:37.752Z,72.10
2022-09-28T23:48:39.924Z,72.10
2022-09-28T23:51:42.036Z,72.10
2022-09-28T23:54:44.595Z,72.20
2022-09-28T23:57:46.721Z,72.20
